N999SP KORL-KSFB
Flight info
| Callsign | N999SP |
|---|---|
| Flight time | 0h 6m |
| Altitude | VFR/080 |
| Route | CAMAN NYTES2 NYTES RDSOX JFRYS |
| Aircraft | C172/L-DOV/C |
Departure
| Time | 2026-05-04 23:35 |
|---|---|
| Airport | Orlando Executive Airport (KORL) |
Arrival
| Time | 2026-05-04 23:42 |
|---|---|
| Airport | Orlando Sanford International Airport (KSFB) |
| Time | Latitude | Longitude | Altitude | Speed | Heading |
|---|---|---|---|---|---|
| 2026-05-04 23:18 | 28.54905 | -81.33445 | 115 ft | 0 kts | 223° |
| 2026-05-04 23:21 | 28.54904 | -81.33447 | 115 ft | 0 kts | 223° |
| 2026-05-04 23:26 | 28.54887 | -81.33463 | 114 ft | 10 kts | 220° |
| 2026-05-04 23:26 | 28.54858 | -81.33558 | 114 ft | 10 kts | 248° |
| 2026-05-04 23:27 | 28.54789 | -81.33657 | 112 ft | 22 kts | 229° |
| 2026-05-04 23:27 | 28.54679 | -81.33755 | 112 ft | 16 kts | 192° |
| 2026-05-04 23:27 | 28.54668 | -81.33756 | 112 ft | 0 kts | 175° |
| 2026-05-04 23:27 | 28.54664 | -81.33759 | 112 ft | 0 kts | 202° |
| 2026-05-04 23:28 | 28.54647 | -81.33764 | 111 ft | 4 kts | 192° |
| 2026-05-04 23:28 | 28.54611 | -81.33760 | 110 ft | 7 kts | 152° |
| 2026-05-04 23:28 | 28.54539 | -81.33757 | 109 ft | 19 kts | 220° |
| 2026-05-04 23:29 | 28.54451 | -81.33845 | 109 ft | 11 kts | 221° |
| 2026-05-04 23:29 | 28.54432 | -81.33863 | 109 ft | 4 kts | 219° |
| 2026-05-04 23:29 | 28.54403 | -81.33887 | 108 ft | 3 kts | 212° |
| 2026-05-04 23:29 | 28.54396 | -81.33893 | 108 ft | 0 kts | 218° |
| 2026-05-04 23:30 | 28.54391 | -81.33898 | 108 ft | 5 kts | 218° |
| 2026-05-04 23:30 | 28.54376 | -81.33911 | 107 ft | 0 kts | 218° |
| 2026-05-04 23:32 | 28.54376 | -81.33912 | 107 ft | 0 kts | 218° |
| 2026-05-04 23:34 | 28.54355 | -81.33924 | 107 ft | 9 kts | 196° |
| 2026-05-04 23:34 | 28.54301 | -81.33885 | 105 ft | 15 kts | 78° |
| 2026-05-04 23:35 | 28.54362 | -81.33720 | 107 ft | 42 kts | 65° |
| 2026-05-04 23:35 | 28.54599 | -81.33100 | 116 ft | 125 kts | 68° |
| 2026-05-04 23:35 | 28.55023 | -81.31986 | 391 ft | 175 kts | 69° |
| 2026-05-04 23:35 | 28.55527 | -81.30666 | 1361 ft | 189 kts | 62° |
| 2026-05-04 23:36 | 28.56479 | -81.29470 | 1990 ft | 226 kts | 44° |
| 2026-05-04 23:36 | 28.57881 | -81.28442 | 1039 ft | 248 kts | 23° |
| 2026-05-04 23:36 | 28.59466 | -81.27874 | 1025 ft | 224 kts | 21° |
| 2026-05-04 23:36 | 28.60805 | -81.27137 | 932 ft | 208 kts | 44° |
| 2026-05-04 23:37 | 28.61726 | -81.25964 | 1089 ft | 190 kts | 52° |
| 2026-05-04 23:37 | 28.62551 | -81.24808 | 1090 ft | 189 kts | 53° |
| 2026-05-04 23:37 | 28.63386 | -81.23659 | 1097 ft | 188 kts | 49° |
| 2026-05-04 23:37 | 28.64548 | -81.22991 | 1093 ft | 197 kts | 10° |
| 2026-05-04 23:38 | 28.65890 | -81.23387 | 1092 ft | 209 kts | 329° |
| 2026-05-04 23:38 | 28.66866 | -81.24640 | 1103 ft | 212 kts | 314° |
| 2026-05-04 23:38 | 28.67980 | -81.25675 | 1095 ft | 199 kts | 328° |
| 2026-05-04 23:38 | 28.69132 | -81.26400 | 1086 ft | 179 kts | 345° |
| 2026-05-04 23:39 | 28.70230 | -81.26792 | 1106 ft | 141 kts | 348° |
| 2026-05-04 23:39 | 28.71125 | -81.27119 | 1018 ft | 132 kts | 348° |
| 2026-05-04 23:39 | 28.72008 | -81.27441 | 1093 ft | 135 kts | 347° |
| 2026-05-04 23:39 | 28.72913 | -81.27758 | 1114 ft | 140 kts | 349° |
| 2026-05-04 23:40 | 28.73863 | -81.28096 | 1100 ft | 146 kts | 348° |
| 2026-05-04 23:40 | 28.74849 | -81.28372 | 1022 ft | 148 kts | 2° |
| 2026-05-04 23:40 | 28.75828 | -81.28100 | 936 ft | 144 kts | 17° |
| 2026-05-04 23:40 | 28.76795 | -81.27877 | 906 ft | 144 kts | 17° |
| 2026-05-04 23:41 | 28.77699 | -81.27459 | 862 ft | 131 kts | 43° |
| 2026-05-04 23:41 | 28.78097 | -81.26564 | 407 ft | 142 kts | 78° |
| 2026-05-04 23:41 | 28.78178 | -81.25544 | 115 ft | 115 kts | 89° |
| 2026-05-04 23:41 | 28.78171 | -81.24782 | 47 ft | 63 kts | 98° |
| 2026-05-04 23:42 | 28.78177 | -81.24395 | 51 ft | 39 kts | 90° |
| 2026-05-04 23:42 | 28.78182 | -81.24195 | 58 ft | 3 kts | 98° |
| 2026-05-04 23:42 | 28.78175 | -81.24139 | 58 ft | 17 kts | 92° |
| 2026-05-04 23:42 | 28.78227 | -81.24032 | 58 ft | 18 kts | 13° |
| 2026-05-04 23:43 | 28.78355 | -81.24036 | 58 ft | 18 kts | 12° |
| 2026-05-04 23:43 | 28.78421 | -81.24052 | 52 ft | 2 kts | 122° |
| 2026-05-04 23:43 | 28.78420 | -81.24052 | 52 ft | 0 kts | 138° |